Time;durP1;ratioP1;P1;durP2;ratioP2;P2;SDS_P1;SDS_P2;PMS_P1;PMS_P2;Temp;Humidity;BMP_temperature;BMP_pressure;BME280_temperature;BME280_humidity;BME280_pressure;Samples;Min_cycle;Max_cycle;Signal;HPM_P1;HPM_P2
2023/04/28 00:00:23;;;;;;;;;;;;;;;13.68;62.50;100433.88;4133071;28;20054;-60
2023/04/28 00:02:26;;;;;;;16.85;8.35;;;;;;;13.59;61.91;100432.13;4129888;28;19957;-60
2023/04/28 00:04:29;;;;;;;15.98;7.53;;;;;;;13.57;61.40;100424.28;4131898;28;20050;-60
2023/04/28 00:06:33;;;;;;;17.45;8.60;;;;;;;13.58;62.02;100428.66;4131550;28;20124;-60
2023/04/28 00:08:36;;;;;;;14.02;8.15;;;;;;;13.58;62.49;100414.72;4131853;28;20042;-60
2023/04/28 00:10:39;;;;;;;15.23;8.18;;;;;;;13.56;63.25;100422.53;4114455;28;20409;-60
2023/04/28 00:12:41;;;;;;;14.07;7.78;;;;;;;13.53;63.88;100413.84;4124894;28;20038;-60
2023/04/28 00:14:46;;;;;;;15.82;8.73;;;;;;;13.52;64.08;100413.00;4132044;28;20489;-60
2023/04/28 00:16:49;;;;;;;10.65;6.85;;;;;;;13.47;63.58;100411.25;4130843;28;20129;-60
2023/04/28 00:18:52;;;;;;;15.70;8.75;;;;;;;13.42;64.50;100412.09;4131648;28;20121;-60
2023/04/28 00:20:55;;;;;;;13.05;7.90;;;;;;;13.37;65.45;100402.50;4130580;28;20042;-60
2023/04/28 00:22:57;;;;;;;13.07;8.80;;;;;;;13.32;65.69;100404.22;4131016;28;20034;-60
2023/04/28 00:25:00;;;;;;;13.73;7.75;;;;;;;13.25;66.00;100395.50;4114098;28;20673;-60
2023/04/28 00:27:03;;;;;;;16.00;8.18;;;;;;;13.24;65.81;100399.84;4131320;28;20508;-60
2023/04/28 00:29:06;;;;;;;13.80;8.15;;;;;;;13.23;66.25;100395.50;4114137;28;20046;-60
2023/04/28 00:31:15;;;;;;;14.10;8.15;;;;;;;13.23;66.94;100382.44;4114729;28;20288;-60
2023/04/28 00:33:18;;;;;;;12.95;7.97;;;;;;;13.20;66.76;100387.66;4111210;28;20062;-60
2023/04/28 00:35:21;;;;;;;13.25;7.05;;;;;;;13.19;66.80;100372.84;4129777;28;20042;-60
2023/04/28 00:37:24;;;;;;;13.02;8.23;;;;;;;13.18;67.11;100368.50;4114102;28;20047;-60
2023/04/28 00:39:27;;;;;;;13.98;8.18;;;;;;;13.14;67.54;100360.66;4114185;28;20027;-60
2023/04/28 00:41:30;;;;;;;14.68;9.15;;;;;;;13.14;67.49;100364.16;4114020;28;20043;-60
2023/04/28 00:43:44;;;;;;;14.02;8.25;;;;;;;13.12;67.79;100370.22;4130585;28;20038;-60
2023/04/28 00:45:47;;;;;;;13.32;8.57;;;;;;;13.05;67.95;100369.34;4108498;28;20047;-60
2023/04/28 00:47:51;;;;;;;19.20;8.15;;;;;;;13.01;68.33;100364.97;4105792;28;20051;-60
2023/04/28 00:49:55;;;;;;;12.38;7.20;;;;;;;12.98;68.65;100360.63;4098493;29;20071;-60
2023/04/28 00:52:02;;;;;;;13.50;7.97;;;;;;;12.99;68.83;100364.09;4113139;28;20046;-60
2023/04/28 00:54:06;;;;;;;16.98;8.07;;;;;;;13.00;68.68;100363.25;4113330;28;20045;-60
2023/04/28 00:56:10;;;;;;;13.73;8.00;;;;;;;12.97;69.36;100355.41;4130967;28;20042;-60
2023/04/28 00:58:12;;;;;;;10.52;7.78;;;;;;;12.92;69.42;100348.44;4112875;28;20468;-60
2023/04/28 01:00:16;;;;;;;15.48;7.95;;;;;;;12.94;69.73;100348.44;4128859;28;20101;-60
2023/04/28 01:02:19;;;;;;;13.68;8.40;;;;;;;12.97;69.86;100347.59;4112418;28;20157;-60
2023/04/28 01:04:22;;;;;;;11.65;7.68;;;;;;;12.99;69.40;100341.47;4112647;28;20070;-60
2023/04/28 01:06:27;;;;;;;14.30;9.50;;;;;;;12.98;69.29;100334.53;4130491;28;20050;-60
2023/04/28 01:08:35;;;;;;;15.05;8.18;;;;;;;12.97;69.34;100327.56;4119201;28;20302;-60
2023/04/28 01:10:43;;;;;;;14.65;8.48;;;;;;;12.95;69.84;100336.25;4113225;28;20050;-60
2023/04/28 01:12:54;;;;;;;16.20;7.65;;;;;;;12.91;70.26;100325.81;4121248;28;20038;-60
2023/04/28 01:14:57;;;;;;;12.88;8.27;;;;;;;12.91;70.07;100324.94;4111500;28;20551;-60
2023/04/28 01:17:00;;;;;;;12.65;8.40;;;;;;;12.92;70.29;100322.34;4128993;28;20034;-60
2023/04/28 01:19:07;;;;;;;12.80;8.23;;;;;;;12.93;70.05;100323.22;4124503;28;20046;-60
2023/04/28 01:21:13;;;;;;;11.23;8.15;;;;;;;12.92;70.25;100324.97;4115926;28;20383;-60
2023/04/28 01:23:17;;;;;;;12.65;8.13;;;;;;;12.91;70.40;100322.34;4112761;28;20050;-60
2023/04/28 01:25:21;;;;;;;11.48;7.82;;;;;;;12.86;70.52;100318.84;4112633;28;20039;-60
2023/04/28 01:27:24;;;;;;;14.93;8.35;;;;;;;12.84;70.54;100325.81;4113278;28;20046;-60
2023/04/28 01:29:28;;;;;;;14.48;7.78;;;;;;;12.87;70.12;100329.28;4111329;28;20047;-60
2023/04/28 01:31:31;;;;;;;10.38;7.20;;;;;;;12.85;69.70;100328.41;4112300;28;20473;-60
2023/04/28 01:33:35;;;;;;;11.23;7.13;;;;;;;12.75;70.06;100324.03;4127775;28;20046;-60
2023/04/28 01:35:38;;;;;;;16.55;8.45;;;;;;;12.69;70.28;100332.72;4112261;28;20026;-60
2023/04/28 01:37:41;;;;;;;14.13;8.00;;;;;;;12.73;70.28;100329.25;4104983;28;20042;-60
2023/04/28 01:39:44;;;;;;;14.32;9.02;;;;;;;12.78;70.68;100326.66;4126075;28;20049;-60
2023/04/28 01:41:48;;;;;;;14.75;7.40;;;;;;;12.79;70.33;100325.78;4113056;28;20400;-60
2023/04/28 01:43:51;;;;;;;13.32;7.75;;;;;;;12.79;70.69;100328.41;4128389;28;20476;-60
2023/04/28 01:45:53;;;;;;;11.00;7.40;;;;;;;12.75;70.47;100324.91;4106410;28;20039;-60
2023/04/28 01:47:56;;;;;;;13.27;7.55;;;;;;;12.72;70.22;100318.81;4117617;28;20039;-60
2023/04/28 01:50:00;;;;;;;14.77;8.32;;;;;;;12.75;70.53;100326.66;4135711;28;20472;-60
2023/04/28 01:52:05;;;;;;;17.13;8.50;;;;;;;12.77;70.47;100319.69;4129035;28;20038;-60
2023/04/28 01:54:08;;;;;;;14.95;8.13;;;;;;;12.80;70.83;100329.25;4129233;28;20042;-60
2023/04/28 01:56:11;;;;;;;15.00;9.50;;;;;;;12.82;70.83;100331.03;4112128;28;20034;-60
2023/04/28 01:58:15;;;;;;;13.75;7.72;;;;;;;12.84;70.83;100337.09;4111978;28;20560;-60
2023/04/28 02:00:19;;;;;;;13.70;8.35;;;;;;;12.86;70.86;100330.13;4098713;28;20051;-60
2023/04/28 02:02:26;;;;;;;14.98;7.25;;;;;;;12.90;70.85;100331.03;4110397;28;20425;-60
2023/04/28 02:04:29;;;;;;;11.82;9.07;;;;;;;12.88;70.72;100328.41;4109730;28;20130;-60
2023/04/28 02:06:33;;;;;;;10.77;7.65;;;;;;;12.88;71.05;100336.25;4111259;28;20042;-60
2023/04/28 02:08:35;;;;;;;11.52;7.10;;;;;;;12.91;70.85;100332.78;4112515;28;20050;-60
2023/04/28 02:10:38;;;;;;;17.15;9.18;;;;;;;12.93;70.78;100326.69;4111475;28;20034;-60
2023/04/28 02:12:41;;;;;;;14.10;8.68;;;;;;;12.96;70.67;100330.19;4126883;28;20047;-60
2023/04/28 02:14:45;;;;;;;11.68;8.63;;;;;;;12.97;71.00;100331.94;4111891;28;20038;-60
2023/04/28 02:16:51;;;;;;;11.07;7.95;;;;;;;12.96;71.25;100330.19;4112199;28;20086;-60
2023/04/28 02:18:54;;;;;;;14.20;8.50;;;;;;;12.92;71.05;100335.38;4111932;28;20050;-60
2023/04/28 02:20:57;;;;;;;13.35;8.57;;;;;;;12.93;71.14;100324.06;4111033;28;20039;-60
2023/04/28 02:23:00;;;;;;;14.10;8.65;;;;;;;12.93;71.38;100324.06;4111817;28;20047;-60
2023/04/28 02:25:03;;;;;;;22.52;9.55;;;;;;;12.88;70.13;100325.81;4113434;28;20098;-60
2023/04/28 02:27:06;;;;;;;11.40;8.60;;;;;;;12.90;70.38;100320.59;4107846;28;20464;-60
2023/04/28 02:29:09;;;;;;;14.60;10.38;;;;;;;12.90;71.31;100316.22;4119697;28;20066;-60
2023/04/28 02:31:13;;;;;;;16.65;9.70;;;;;;;12.96;71.05;100322.34;4112269;28;20062;-60
2023/04/28 02:33:16;;;;;;;12.02;9.05;;;;;;;12.90;70.89;100331.03;4125611;28;20081;-60
2023/04/28 02:35:19;;;;;;;13.60;8.27;;;;;;;12.88;71.48;100323.19;4112127;28;20031;-60
2023/04/28 02:37:22;;;;;;;11.25;8.90;;;;;;;12.86;71.76;100334.50;4112538;28;20039;-60
2023/04/28 02:39:26;;;;;;;13.07;9.23;;;;;;;12.83;71.58;100330.13;4111722;28;20043;-60
2023/04/28 02:41:33;;;;;;;14.63;8.27;;;;;;;12.70;71.71;100339.69;4110435;28;20046;-60
2023/04/28 02:43:36;;;;;;;13.60;9.43;;;;;;;12.71;71.85;100345.75;4108859;28;20134;-60
2023/04/28 02:45:40;;;;;;;12.25;9.40;;;;;;;12.75;72.17;100334.47;4132408;28;20046;-60
2023/04/28 02:47:44;;;;;;;12.15;8.85;;;;;;;12.78;72.09;100342.31;4114296;28;20050;-60
2023/04/28 02:49:47;;;;;;;11.57;9.95;;;;;;;12.79;72.06;100336.22;4115328;28;20122;-60
2023/04/28 02:51:50;;;;;;;11.70;9.68;;;;;;;12.79;72.25;100331.00;4124448;28;20043;-60
2023/04/28 02:53:53;;;;;;;12.95;8.98;;;;;;;12.79;71.53;100332.72;4130080;28;20034;-60
2023/04/28 02:55:56;;;;;;;13.85;9.45;;;;;;;12.79;72.14;100322.28;4130715;28;20038;-60
2023/04/28 02:57:59;;;;;;;12.23;9.05;;;;;;;12.79;72.15;100312.75;4115547;28;20035;-60
2023/04/28 03:00:02;;;;;;;14.13;9.60;;;;;;;12.80;72.00;100300.56;4122876;28;20471;-60
2023/04/28 03:02:12;;;;;;;12.95;7.97;;;;;;;12.79;72.48;100294.50;4116474;28;20066;-60
2023/04/28 03:04:16;;;;;;;16.02;10.60;;;;;;;12.80;72.13;100291.00;4098596;29;20039;-60
2023/04/28 03:06:20;;;;;;;13.20;9.35;;;;;;;12.77;71.95;100288.38;4115863;28;20094;-60
2023/04/28 03:08:24;;;;;;;16.40;10.53;;;;;;;12.75;72.20;100291.00;4114233;28;20525;-60
2023/04/28 03:10:28;;;;;;;14.90;10.35;;;;;;;12.72;72.18;100285.78;4131649;28;20136;-60
2023/04/28 03:12:31;;;;;;;16.60;11.43;;;;;;;12.78;72.06;100282.31;4113865;28;20409;-60
2023/04/28 03:14:34;;;;;;;12.05;8.52;;;;;;;12.73;71.83;100289.22;4122086;28;20042;-60
2023/04/28 03:16:36;;;;;;;16.92;10.30;;;;;;;12.70;72.58;100287.50;4097453;28;20457;-60
2023/04/28 03:18:39;;;;;;;14.75;9.82;;;;;;;12.69;72.52;100274.47;4131436;28;20500;-60
2023/04/28 03:20:44;;;;;;;17.95;10.13;;;;;;;12.64;72.87;100277.03;4111392;28;20049;-60
2023/04/28 03:22:46;;;;;;;8.93;7.60;;;;;;;12.62;73.13;100272.72;4113060;28;20058;-60
2023/04/28 03:24:49;;;;;;;12.55;8.88;;;;;;;12.49;73.15;100264.84;4114494;28;20047;-59
2023/04/28 03:26:52;;;;;;;12.68;9.38;;;;;;;12.48;73.24;100265.69;4114418;28;20097;-59
2023/04/28 03:28:55;;;;;;;11.70;8.23;;;;;;;12.48;73.38;100252.66;4130169;28;20550;-60
2023/04/28 03:30:59;;;;;;;14.53;9.57;;;;;;;12.50;73.59;100257.88;4114335;28;20532;-60
2023/04/28 03:33:01;;;;;;;11.27;8.23;;;;;;;12.55;73.28;100249.19;4124710;28;20324;-60
2023/04/28 03:35:04;;;;;;;14.38;9.35;;;;;;;12.52;73.67;100256.16;4129226;28;20038;-60
2023/04/28 03:37:08;;;;;;;11.43;8.70;;;;;;;12.46;73.86;100259.63;4130887;28;20047;-60
2023/04/28 03:39:11;;;;;;;15.85;11.32;;;;;;;12.39;74.03;100250.03;4131174;28;20047;-60
2023/04/28 03:41:14;;;;;;;12.68;9.18;;;;;;;12.36;74.23;100253.50;4114848;28;20042;-60
2023/04/28 03:43:36;;;;;;;14.40;10.00;;;;;;;12.38;74.41;100263.91;4130590;28;20065;-60
2023/04/28 03:45:49;;;;;;;17.65;11.25;;;;;;;12.49;73.56;100256.16;4114226;28;20067;-60
2023/04/28 03:47:51;;;;;;;10.80;7.70;;;;;;;12.44;73.73;100269.19;4114740;28;20429;-60
2023/04/28 03:49:55;;;;;;;12.18;8.95;;;;;;;12.38;73.77;100269.13;4114040;28;20591;-60
2023/04/28 03:51:58;;;;;;;9.73;6.68;;;;;;;12.29;73.91;100264.75;4097284;29;20043;-59
2023/04/28 03:54:02;;;;;;;8.65;6.30;;;;;;;12.28;73.56;100268.25;4121588;28;20923;-60
2023/04/28 03:56:07;;;;;;;11.25;7.55;;;;;;;12.31;73.29;100264.75;4112425;28;20476;-60
2023/04/28 03:58:10;;;;;;;9.35;6.72;;;;;;;12.22;74.09;100284.72;4113760;28;20062;-60
2023/04/28 04:00:14;;;;;;;11.85;7.50;;;;;;;12.01;73.79;100268.97;4113794;28;20042;-60
2023/04/28 04:02:21;;;;;;;10.20;6.72;;;;;;;12.05;73.92;100274.22;4125100;28;20117;-60
2023/04/28 04:04:24;;;;;;;13.82;7.30;;;;;;;12.10;74.14;100279.44;4132527;28;20052;-60
2023/04/28 04:06:28;;;;;;;10.45;7.70;;;;;;;12.13;73.51;100270.78;4113069;28;20038;-60
2023/04/28 04:08:32;;;;;;;9.70;6.95;;;;;;;12.16;73.52;100274.28;4131692;28;20042;-60
2023/04/28 04:10:36;;;;;;;13.45;8.40;;;;;;;12.21;73.60;100275.16;4097615;29;20036;-60
2023/04/28 04:12:39;;;;;;;21.88;10.45;;;;;;;12.12;73.43;100266.41;4113129;28;20094;-60
2023/04/28 04:14:42;;;;;;;10.85;9.27;;;;;;;12.18;73.99;100266.47;4126024;28;20042;-60
2023/04/28 04:16:48;;;;;;;15.52;9.00;;;;;;;12.31;73.94;100264.75;4113568;28;20089;-60
2023/04/28 04:18:50;;;;;;;;;;;;;;;12.30;73.96;100256.06;4130138;28;20129;-60
2023/04/28 04:20:57;;;;;;;12.02;7.03;;;;;;;12.23;73.92;100260.38;4128350;28;19929;-60
2023/04/28 04:23:00;;;;;;;12.13;8.05;;;;;;;12.23;73.63;100257.78;4123268;28;20038;-60
2023/04/28 04:25:04;;;;;;;14.32;8.88;;;;;;;12.30;73.90;100244.78;4095741;29;20095;-60
2023/04/28 04:27:09;;;;;;;11.98;8.23;;;;;;;12.28;73.93;100244.78;4130164;28;20035;-60
2023/04/28 04:29:14;;;;;;;9.05;6.68;;;;;;;12.26;74.62;100245.63;4129621;28;20129;-60
2023/04/28 04:31:18;;;;;;;14.75;7.63;;;;;;;12.26;74.35;100243.91;4129177;28;20078;-60
2023/04/28 04:33:22;;;;;;;14.63;8.05;;;;;;;12.30;74.72;100240.44;4096706;28;21756;-60
2023/04/28 04:35:25;;;;;;;9.80;6.50;;;;;;;12.28;74.55;100243.91;4118365;28;20515;-60
2023/04/28 04:37:28;;;;;;;11.68;7.95;;;;;;;12.23;74.70;100244.75;4113295;28;20397;-60
2023/04/28 04:39:35;;;;;;;10.10;7.38;;;;;;;12.22;74.53;100245.63;4129524;28;20042;-60
2023/04/28 04:41:38;;;;;;;12.98;7.18;;;;;;;12.23;74.54;100247.34;4097228;28;20051;-60
2023/04/28 04:44:10;;;;;;;10.15;6.97;;;;;;;12.18;74.64;100261.25;4099411;28;20098;-60
2023/04/28 04:46:18;;;;;;;11.82;7.40;;;;;;;12.18;74.49;100250.84;4114448;28;20046;-60
2023/04/28 04:48:22;;;;;;;10.63;7.60;;;;;;;12.20;74.68;100256.91;4114494;28;20063;-60
2023/04/28 04:50:25;;;;;;;8.85;7.35;;;;;;;12.25;74.64;100236.06;4113034;28;20046;-59
2023/04/28 04:52:29;;;;;;;7.82;6.50;;;;;;;12.20;75.32;100249.09;4111518;28;20038;-59
2023/04/28 04:54:31;;;;;;;10.75;7.47;;;;;;;12.22;74.93;100252.56;4128375;28;20405;-59
2023/04/28 04:56:34;;;;;;;9.95;6.82;;;;;;;12.25;74.90;100250.00;4112896;28;20394;-60
2023/04/28 04:58:37;;;;;;;9.15;6.30;;;;;;;12.26;75.51;100250.84;4128499;28;20034;-60
2023/04/28 05:01:00;;;;;;;10.48;6.95;;;;;;;12.27;75.25;100250.00;4127737;28;20070;-60
2023/04/28 05:03:05;;;;;;;11.18;8.55;;;;;;;12.31;74.80;100246.50;4128342;28;20038;-60
2023/04/28 05:05:08;;;;;;;;;;;;;;;12.23;75.04;100249.97;4113479;28;20146;-60
2023/04/28 05:07:39;;;;;;;9.60;7.72;;;;;;;12.23;75.52;100247.34;4159486;22;19925;-68
2023/04/28 05:09:43;;;;;;;10.98;7.18;;;;;;;12.24;75.65;100243.03;4125847;28;20034;-68
2023/04/28 05:11:46;;;;;;;9.35;7.05;;;;;;;12.25;75.84;100249.09;4140798;28;20045;-69
2023/04/28 05:13:50;;;;;;;11.55;8.32;;;;;;;12.30;75.74;100247.41;4142278;28;20076;-69
2023/04/28 05:15:53;;;;;;;9.88;6.97;;;;;;;12.27;75.57;100247.38;4127829;28;20049;-68
2023/04/28 05:18:12;;;;;;;11.70;6.30;;;;;;;12.25;75.61;100241.28;4098056;28;20046;-68
2023/04/28 05:20:15;;;;;;;11.82;8.38;;;;;;;12.29;75.98;100243.03;4114344;28;20453;-69
2023/04/28 05:22:19;;;;;;;13.32;8.00;;;;;;;12.28;75.50;100238.69;4112066;28;20038;-69
2023/04/28 05:24:23;;;;;;;12.27;8.68;;;;;;;12.27;75.97;100236.97;4111450;28;20129;-69
2023/04/28 05:26:26;;;;;;;13.40;8.93;;;;;;;12.34;75.44;100238.72;4113339;28;20133;-69
2023/04/28 05:28:33;;;;;;;14.68;8.35;;;;;;;12.30;75.46;100242.19;4129623;28;20452;-69
2023/04/28 05:30:36;;;;;;;15.98;8.38;;;;;;;12.16;75.74;100248.22;4113189;28;20058;-69
2023/04/28 05:32:39;;;;;;;13.93;8.68;;;;;;;12.18;76.43;100241.25;4112538;28;20039;-69
2023/04/28 05:34:44;;;;;;;9.55;7.32;;;;;;;12.20;75.81;100238.66;4113044;28;20082;-69
2023/04/28 05:36:46;;;;;;;17.73;8.95;;;;;;;12.21;75.73;100238.66;4128546;28;20514;-69
2023/04/28 05:38:50;;;;;;;12.90;8.68;;;;;;;12.21;76.34;100236.06;4112419;28;20090;-69
2023/04/28 05:40:54;;;;;;;14.10;9.03;;;;;;;12.29;76.01;100237.81;4110662;28;20404;-69
2023/04/28 05:42:57;;;;;;;12.70;8.05;;;;;;;12.17;76.39;100236.91;4112461;28;20078;-69
2023/04/28 05:45:00;;;;;;;12.15;8.80;;;;;;;12.15;76.35;100241.25;4113075;28;20039;-69
2023/04/28 05:47:03;;;;;;;12.95;8.57;;;;;;;12.15;76.81;100233.44;4112848;28;20122;-69
2023/04/28 05:49:07;;;;;;;10.95;8.45;;;;;;;12.18;76.96;100235.19;4112897;28;20042;-68
2023/04/28 05:51:14;;;;;;;13.75;8.30;;;;;;;12.16;76.79;100232.59;4112736;28;20039;-69
2023/04/28 05:53:17;;;;;;;14.85;9.38;;;;;;;12.20;76.54;100239.53;4101978;28;20066;-69
2023/04/28 05:55:20;;;;;;;13.77;8.52;;;;;;;12.26;76.65;100235.22;4112761;28;20125;-69
2023/04/28 05:57:23;;;;;;;10.40;7.07;;;;;;;12.24;76.94;100245.63;4110720;28;20592;-69
2023/04/28 05:59:27;;;;;;;12.60;7.93;;;;;;;12.25;77.19;100241.28;4112135;28;20054;-69
2023/04/28 06:01:30;;;;;;;10.57;7.45;;;;;;;12.25;76.51;100242.19;4112601;28;20043;-70
2023/04/28 06:03:33;;;;;;;9.20;7.60;;;;;;;12.25;77.25;100246.50;4129387;28;20546;-69
2023/04/28 06:05:37;;;;;;;15.50;9.88;;;;;;;12.26;77.21;100253.47;4096577;29;20047;-69
2023/04/28 06:07:42;;;;;;;13.05;9.57;;;;;;;12.32;76.46;100258.69;4112528;28;20525;-69
2023/04/28 06:09:45;;;;;;;17.98;9.82;;;;;;;12.30;76.67;100263.91;4122276;28;20560;-69
2023/04/28 06:11:49;;;;;;;10.05;7.38;;;;;;;12.23;76.63;100277.78;4112688;28;20560;-69
2023/04/28 06:13:52;;;;;;;13.93;8.68;;;;;;;12.19;77.30;100283.81;4122262;28;20062;-69
2023/04/28 06:15:55;;;;;;;12.15;8.77;;;;;;;12.21;77.84;100290.78;4112789;28;20090;-69
2023/04/28 06:17:58;;;;;;;11.50;8.65;;;;;;;12.22;77.78;100281.22;4129818;28;20038;-70
2023/04/28 06:20:02;;;;;;;16.90;9.45;;;;;;;12.25;78.44;100282.97;4114188;28;20519;-69
2023/04/28 06:22:06;;;;;;;14.07;10.55;;;;;;;12.30;78.19;100265.66;4115898;28;20061;-69
2023/04/28 06:24:11;;;;;;;15.35;9.40;;;;;;;12.36;77.87;100250.03;4115935;28;20035;-68
2023/04/28 06:26:16;;;;;;;14.18;9.65;;;;;;;12.36;78.05;100239.59;4128468;28;20054;-68
2023/04/28 06:28:20;;;;;;;16.08;10.93;;;;;;;12.34;77.89;100252.63;4115957;28;20129;-68
2023/04/28 06:30:23;;;;;;;15.95;9.73;;;;;;;12.27;78.12;100270.84;4133423;28;20053;-69
2023/04/28 06:32:26;;;;;;;13.77;9.68;;;;;;;12.19;78.01;100266.47;4132573;28;20137;-69
2023/04/28 06:34:30;;;;;;;14.88;9.63;;;;;;;12.15;78.71;100259.50;4115496;28;20579;-69
2023/04/28 06:36:33;;;;;;;16.15;10.90;;;;;;;12.28;77.91;100249.09;4098977;28;20039;-68
2023/04/28 06:38:36;;;;;;;11.75;8.82;;;;;;;12.23;78.83;100249.97;4116462;28;20138;-68
2023/04/28 06:40:40;;;;;;;15.45;11.30;;;;;;;12.22;78.29;100244.75;4132966;28;20043;-69
2023/04/28 06:42:43;;;;;;;15.18;11.13;;;;;;;12.23;78.58;100252.56;4114463;28;20117;-69
2023/04/28 06:44:52;;;;;;;16.27;10.43;;;;;;;12.22;79.32;100252.56;4115192;28;20050;-69
2023/04/28 06:46:55;;;;;;;18.80;11.38;;;;;;;12.23;79.42;100234.31;4116152;28;20564;-69
2023/04/28 06:48:58;;;;;;;13.48;9.73;;;;;;;12.25;79.15;100243.88;4110676;28;20121;-69
2023/04/28 06:51:01;;;;;;;12.77;9.23;;;;;;;12.19;79.35;100258.66;4132956;28;20034;-69
2023/04/28 06:53:04;;;;;;;14.65;10.95;;;;;;;12.19;79.52;100263.88;4114997;28;20043;-69
2023/04/28 06:55:09;;;;;;;14.82;12.00;;;;;;;12.22;80.01;100256.06;4132984;28;20030;-69
2023/04/28 06:57:13;;;;;;;12.57;8.82;;;;;;;12.25;79.26;100250.00;4132529;28;20046;-69
2023/04/28 06:59:16;;;;;;;14.43;10.15;;;;;;;12.32;79.08;100253.47;4115567;28;20042;-69
2023/04/28 07:01:18;;;;;;;14.05;10.85;;;;;;;12.33;79.30;100250.88;4132790;28;20492;-69
2023/04/28 07:03:22;;;;;;;15.40;10.90;;;;;;;12.37;79.33;100247.41;4132408;28;20149;-68
2023/04/28 07:05:25;;;;;;;14.05;10.20;;;;;;;12.48;79.17;100238.75;4131315;28;20452;-69
2023/04/28 07:07:28;;;;;;;17.42;11.32;;;;;;;12.49;79.33;100241.38;4114720;28;20579;-69
2023/04/28 07:09:31;;;;;;;20.77;11.65;;;;;;;12.46;79.28;100237.91;4115106;28;20043;-69
2023/04/28 07:11:34;;;;;;;16.23;11.43;;;;;;;12.48;79.67;100237.00;4131432;28;20038;-69
2023/04/28 07:13:38;;;;;;;15.95;12.05;;;;;;;12.51;79.16;100234.44;4131846;28;20034;-69
2023/04/28 07:15:41;;;;;;;14.15;10.02;;;;;;;12.51;79.69;100239.66;4131302;28;20045;-69
2023/04/28 07:17:44;;;;;;;15.77;11.23;;;;;;;12.51;79.80;100242.25;4131177;28;20038;-70
2023/04/28 07:19:48;;;;;;;15.98;13.13;;;;;;;12.66;79.24;100241.41;4114221;28;20081;-69
2023/04/28 07:21:51;;;;;;;14.63;12.35;;;;;;;12.86;79.49;100240.56;4115032;28;20501;-69
2023/04/28 07:23:55;;;;;;;12.85;10.82;;;;;;;12.66;79.97;100245.75;4131817;28;20130;-68
2023/04/28 07:25:58;;;;;;;15.85;11.63;;;;;;;12.58;80.15;100233.56;4109890;28;20049;-69
2023/04/28 07:28:03;;;;;;;12.30;9.05;;;;;;;12.61;80.77;100229.22;4132354;28;20125;-69
2023/04/28 07:30:08;;;;;;;15.48;12.13;;;;;;;12.86;80.06;100223.16;4131806;28;20042;-69
2023/04/28 07:32:29;;;;;;;19.02;13.18;;;;;;;12.81;80.27;100237.97;4114858;28;20089;-69
2023/04/28 07:34:32;;;;;;;14.77;10.85;;;;;;;12.83;80.20;100237.97;4131550;28;20041;-69
2023/04/28 07:36:35;;;;;;;14.77;11.68;;;;;;;12.77;80.46;100238.81;4114759;28;20057;-69
2023/04/28 07:38:38;;;;;;;15.02;10.73;;;;;;;12.77;80.56;100228.38;4114727;28;20539;-69
2023/04/28 07:40:42;;;;;;;17.08;12.57;;;;;;;12.77;80.76;100225.78;4114833;28;20398;-69
2023/04/28 07:42:45;;;;;;;13.40;9.57;;;;;;;12.78;80.88;100211.88;4110434;28;20038;-69
2023/04/28 07:44:48;;;;;;;14.32;11.40;;;;;;;12.88;80.49;100212.75;4131737;28;20459;-70
2023/04/28 07:46:53;;;;;;;15.77;11.52;;;;;;;12.83;80.89;100209.25;4132080;28;20042;-70
2023/04/28 07:48:55;;;;;;;13.80;9.80;;;;;;;12.74;81.43;100205.75;4132312;28;20096;-69
2023/04/28 07:50:58;;;;;;;13.45;10.88;;;;;;;12.81;81.16;100209.25;4115082;28;20517;-69
2023/04/28 07:53:01;;;;;;;12.35;9.65;;;;;;;12.72;81.50;100222.31;4126690;28;20038;-70
2023/04/28 07:55:05;;;;;;;18.17;11.60;;;;;;;12.72;81.52;100217.09;4131127;28;20447;-70
2023/04/28 07:57:09;;;;;;;13.00;10.63;;;;;;;12.70;82.13;100230.13;4131708;28;20500;-70
2023/04/28 07:59:11;;;;;;;14.00;10.87;;;;;;;12.74;81.85;100228.38;4131900;28;20409;-70
2023/04/28 08:01:14;;;;;;;14.02;10.90;;;;;;;12.88;81.52;100218.84;4131960;28;20045;-70
2023/04/28 08:03:18;;;;;;;13.30;10.30;;;;;;;12.93;81.63;100227.53;4131234;28;20061;-70
2023/04/28 08:05:22;;;;;;;14.70;12.52;;;;;;;12.93;81.56;100218.84;4130061;28;20084;-70
2023/04/28 08:07:25;;;;;;;15.18;12.63;;;;;;;12.97;81.70;100210.16;4132249;28;20042;-70
2023/04/28 08:09:27;;;;;;;14.13;9.90;;;;;;;13.06;81.18;100211.88;4132029;28;20746;-70
2023/04/28 08:11:30;;;;;;;15.90;11.65;;;;;;;13.08;81.56;100199.69;4115181;28;20077;-70
2023/04/28 08:13:34;;;;;;;12.88;10.20;;;;;;;13.13;81.24;100203.19;4131651;28;20408;-70
2023/04/28 08:15:36;;;;;;;16.75;11.57;;;;;;;13.24;81.25;100208.38;4130072;28;20039;-70
2023/04/28 08:17:40;;;;;;;14.20;12.25;;;;;;;13.23;81.56;100228.41;4131518;28;20045;-70
2023/04/28 08:19:45;;;;;;;15.13;11.43;;;;;;;13.17;81.69;100220.59;4128649;28;20081;-70
2023/04/28 08:21:47;;;;;;;15.35;12.52;;;;;;;13.28;81.84;100213.59;4131447;28;20133;-70
2023/04/28 08:23:50;;;;;;;15.23;12.70;;;;;;;13.39;81.48;100207.53;4130685;28;20074;-70
2023/04/28 08:25:53;;;;;;;15.77;12.45;;;;;;;13.43;81.48;100217.09;4114024;28;20039;-69
2023/04/28 08:27:57;;;;;;;15.23;9.85;;;;;;;13.44;81.71;100216.25;4131501;28;20499;-70
2023/04/28 08:30:00;;;;;;;11.63;10.15;;;;;;;13.45;81.81;100225.81;4131767;28;20073;-71
2023/04/28 08:32:05;;;;;;;16.33;11.32;;;;;;;13.67;81.48;100233.59;4133568;28;20129;-70
2023/04/28 08:34:08;;;;;;;11.77;9.80;;;;;;;13.59;81.27;100234.50;4129831;28;20054;-70
2023/04/28 08:36:13;;;;;;;14.45;9.45;;;;;;;13.48;81.97;100235.38;4129704;28;20153;-71
2023/04/28 08:38:17;;;;;;;10.45;8.68;;;;;;;13.56;82.04;100231.03;4112148;28;20051;-70
2023/04/28 08:40:20;;;;;;;11.55;9.05;;;;;;;13.59;81.58;100231.91;4130739;28;20043;-70
2023/04/28 08:42:24;;;;;;;13.75;9.48;;;;;;;13.71;81.95;100232.72;4115367;28;20050;-70
2023/04/28 08:44:26;;;;;;;18.13;10.82;;;;;;;13.71;82.06;100227.50;4132284;28;20038;-71
2023/04/28 08:46:34;;;;;;;12.02;9.57;;;;;;;13.90;82.09;100220.47;4114032;28;20042;-68
2023/04/28 08:48:41;;;;;;;9.73;8.20;;;;;;;13.81;82.33;100223.97;4128558;28;20134;-68
2023/04/28 08:50:51;;;;;;;10.23;8.55;;;;;;;13.78;82.32;100227.50;4131274;28;20054;-69
2023/04/28 08:52:57;;;;;;;10.48;8.43;;;;;;;13.90;82.38;100229.22;4111622;28;20043;-68
2023/04/28 08:55:01;;;;;;;10.07;7.32;;;;;;;14.02;82.10;100223.06;4131125;28;20555;-69
2023/04/28 08:57:04;;;;;;;9.05;7.13;;;;;;;14.00;81.92;100224.78;4129448;28;20042;-68
2023/04/28 08:59:07;;;;;;;10.77;8.20;;;;;;;14.04;82.76;100236.13;4124502;28;20046;-68
2023/04/28 09:01:10;;;;;;;9.95;7.28;;;;;;;13.89;82.32;100232.69;4129699;28;20122;-69
2023/04/28 09:03:13;;;;;;;9.07;7.70;;;;;;;13.85;82.62;100225.72;4129861;28;20035;-69
2023/04/28 09:05:16;;;;;;;11.40;8.90;;;;;;;13.68;83.39;100231.00;4114431;28;20587;-69
2023/04/28 09:07:19;;;;;;;12.05;8.55;;;;;;;13.85;82.94;100230.09;4099670;28;20043;-69
2023/04/28 09:09:26;;;;;;;9.23;6.93;;;;;;;13.89;82.49;100235.28;4130935;28;20429;-69
2023/04/28 09:11:29;;;;;;;8.48;6.50;;;;;;;13.79;83.07;100239.66;4129370;28;20126;-69
2023/04/28 09:13:32;;;;;;;11.23;7.00;;;;;;;13.82;83.34;100241.41;4130138;28;20046;-70
2023/04/28 09:15:36;;;;;;;9.20;7.20;;;;;;;13.95;83.11;100240.50;4129871;28;20043;-70
2023/04/28 09:17:49;;;;;;;11.35;8.32;;;;;;;14.02;82.29;100233.50;4110895;28;20043;-70
2023/04/28 09:19:52;;;;;;;10.63;9.00;;;;;;;13.93;83.48;100233.53;4115715;28;20038;-69
2023/04/28 09:21:56;;;;;;;10.68;8.35;;;;;;;14.04;83.02;100246.56;4130230;28;20045;-69
2023/04/28 09:23:59;;;;;;;7.55;6.38;;;;;;;13.99;82.58;100238.75;4124099;28;20499;-69
2023/04/28 09:26:05;;;;;;;7.53;6.55;;;;;;;14.01;83.59;100236.13;4132031;28;20050;-69
2023/04/28 09:28:20;;;;;;;10.82;9.18;;;;;;;14.21;82.67;100239.53;4125788;28;20070;-69
2023/04/28 09:30:39;;;;;;;7.75;6.18;;;;;;;14.25;83.05;100240.38;4113925;28;20132;-70